Create Custom Reports and Graphics: Custom Report

Bell Hill-West

Current Conditions

5/19/24 7:00 AM (-07:00)
Updated Every 15 Minutes
Temp 46.3 °F   7.9
RH 92 %   8
Dew Pt 44.2 °F   10.0
Wet Bulb 45.7 °F   9.7
Wind Dir S | 191 °
Wind Spd 2.3 mph   2.2
Wind Gust 4.1 mph   2.0
Solar Rad 136 W/m2   10
BatVolt 12.8 V   0.0

Today & Yesterday

Bell Hill-West

5/19/24 7:00 AM (-07:00)
Updated Every 15 Minutes
Daily Max Temp 54.6 °F   3.2
Time of Max Temp 0102
Daily Min Temp 43.0 °F   8.6
Time of Min Temp 0602
Daily Max Wind 4.4 mph   0.3
Time of Max Wind 0239
Max Wind Dir S | 170 °
Daily Rain 0.00 In
Daily ETo 0.000 in   0.000
Yest MaxT 81.5 °F
Yest MinT 51.6 °F
Yest MaxGst 18.5 mph
Yest Precip 0.00 In
Yest ETo 0.24 In

Last 48 Hours

Bell Hill-West

Hourly Data | America/Los_Angeles
as of 5/19/24 7:08 AM PDT
Date & Time Temp (°F) Heat Index (°F) RH (%) Dew Pt (°F) Wet Bulb (°F) Wind Dir (°) Wind Spd (mph) Wind Gust (mph) Wind Gst Dir (°) Solar Rad (W/m2) Latest Rain (In) Daily Rain (In) Daily Min Temp (°F) Daily Max Temp (°F) Daily ETo (in)
5/19/24 - 0700 44.4 - 96 43.3 44.3 S | 185 2.5 4.4 S | 190 58 0.00 0.00 43.0 54.6 0.000
5/19/24 - 0600 43.7 - 98 43.2 43.8 S | 188 2.5 4.4 S | 174 1 0.00 0.00 43.1 54.6 0.000
5/19/24 - 0500 44.3 - 97 43.5 44.3 SSW | 194 2.1 4.1 SSW | 204 0 0.00 0.00 43.7 54.6 0.000
5/19/24 - 0400 45.9 - 94 44.2 45.5 SSW | 197 2.4 3.4 S | 190 0 0.00 0.00 44.4 54.6 0.000
5/19/24 - 0300 47.9 - 91 45.5 47.2 S | 190 2.5 4.4 S | 170 0 0.00 0.00 46.8 54.6 0.000
5/19/24 - 0200 52.4 - 81 46.6 49.9 S | 171 0.9 3.1 ENE | 73 0 0.00 0.00 49.4 54.6 0.000
5/19/24 - 0100 56.1 - 72 47.0 51.8 SSW | 193 1.6 7.1 SSW | 210 0 0.00 0.00 51.6 81.5 0.240
5/19/24 - 0000 57.2 - 69 47.3 52.4 S | 191 1.2 6.1 SW | 214 0 0.00 0.00 51.6 81.5 0.240
5/18/24 - 2300 60.2 - 63 47.6 53.6 SSW | 196 1.1 4.4 S | 187 0 0.00 0.00 51.6 81.5 0.240
5/18/24 - 2200 62.5 - 59 48.0 54.7 SSE | 166 1.2 5.8 S | 172 0 0.00 0.00 51.6 81.5 0.240
5/18/24 - 2100 66.6 - 50 47.4 55.8 SSW | 194 2.2 8.4 S | 179 6 0.00 0.00 51.6 81.5 0.240
5/18/24 - 2000 71.8 - 45 49.5 58.4 S | 177 2.9 8.8 SSW | 209 122 0.00 0.00 51.6 81.5 0.240
5/18/24 - 1900 74.8 - 44 51.2 60.1 SW | 219 5.2 12.5 SSW | 211 325 0.00 0.00 51.6 81.5 0.237
5/18/24 - 1800 76.1 - 48 54.9 62.6 SW | 225 8.7 18.2 WSW | 250 535 0.00 0.00 51.6 81.5 0.227
5/18/24 - 1700 77.5 - 54 59.6 66.0 SW | 231 8.1 18.5 SW | 232 721 0.00 0.00 51.6 81.5 0.211
5/18/24 - 1600 78.7 - 54 60.5 66.8 SW | 229 9.1 17.5 WSW | 248 882 0.00 0.00 51.6 81.5 0.190
5/18/24 - 1500 78.9 - 55 61.2 67.4 SW | 232 9.2 16.2 WSW | 253 981 0.00 0.00 51.6 81.5 0.164
5/18/24 - 1400 78.5 - 54 60.7 66.9 WSW | 245 9.4 15.8 WSW | 249 1,025 0.00 0.00 51.6 81.5 0.137
5/18/24 - 1300 80.4 81.5 53 61.7 68.0 W | 270 5.6 13.8 SW | 233 1,015 0.00 0.00 51.6 81.5 0.108
5/18/24 - 1200 77.5 - 58 61.6 67.4 NNE | 12 3.0 7.1 NNE | 16 950 0.00 0.00 51.6 79.2 0.079
5/18/24 - 1100 74.4 - 64 61.4 66.7 N | 350 2.6 6.8 NNW | 340 826 0.00 0.00 51.6 76.4 0.053
5/18/24 - 1000 70.8 - 68 59.9 64.8 N | 5 1.8 7.4 NNE | 23 657 0.00 0.00 51.6 72.4 0.031
5/18/24 - 0900 67.8 - 73 58.7 63.2 NE | 45 0.4 4.8 NNW | 332 462 0.00 0.00 51.6 69.9 0.015
5/18/24 - 0800 60.4 - 90 57.3 59.9 S | 184 0.1 2.4 S | 186 254 0.00 0.00 51.6 65.4 0.004
5/18/24 - 0700 52.7 - 100 52.7 53.7 S | 189 1.5 3.4 S | 170 55 0.00 0.00 51.6 57.8 0.000
5/18/24 - 0600 52.2 - 100 52.2 53.3 SSW | 193 2.2 3.4 S | 187 1 0.00 0.00 51.6 57.8 0.000
5/18/24 - 0500 53.2 - 100 53.3 54.4 S | 185 2.4 3.4 S | 191 0 0.00 0.00 52.7 57.8 0.000
5/18/24 - 0400 54.4 - 100 54.4 55.6 S | 189 2.2 4.1 S | 184 0 0.00 0.00 53.5 57.8 0.000
5/18/24 - 0300 55.6 - 100 55.6 57.0 S | 187 2.5 3.4 S | 185 0 0.00 0.00 55.1 57.8 0.000
5/18/24 - 0200 56.8 - 99 56.6 58.1 S | 191 2.7 3.8 SSW | 192 0 0.00 0.00 56.1 57.8 0.000
5/18/24 - 0100 58.3 - 97 57.4 59.2 S | 190 2.7 4.4 S | 169 0 0.00 0.00 49.7 84.8 0.241
5/18/24 - 0000 60.1 - 93 58.1 60.4 S | 191 2.6 3.8 S | 182 0 0.00 0.00 49.7 84.8 0.241
5/17/24 - 2300 62.7 - 88 59.2 62.1 SSW | 193 2.5 3.8 S | 173 0 0.00 0.00 49.7 84.8 0.241
5/17/24 - 2200 66.8 - 77 59.2 63.3 SSW | 198 1.5 3.8 SSW | 197 0 0.00 0.00 49.7 84.8 0.241
5/17/24 - 2100 72.2 - 67 60.5 65.5 S | 180 1.6 6.4 S | 189 5 0.00 0.00 49.7 84.8 0.241
5/17/24 - 2000 77.0 - 60 62.1 67.7 S | 182 2.3 8.1 SSW | 198 103 0.00 0.00 49.7 84.8 0.241
5/17/24 - 1900 80.1 81.3 54 62.1 68.2 SW | 230 5.2 12.1 SW | 227 297 0.00 0.00 49.7 84.8 0.239
5/17/24 - 1800 81.7 82.7 52 62.3 68.6 WSW | 241 6.8 12.5 SW | 236 512 0.00 0.00 49.7 84.8 0.230
5/17/24 - 1700 82.5 83.3 50 62.0 68.5 WSW | 242 6.9 12.1 WSW | 246 705 0.00 0.00 49.7 84.8 0.214
5/17/24 - 1600 83.1 83.6 48 61.2 67.9 WSW | 244 7.6 13.5 WSW | 252 865 0.00 0.00 49.7 84.8 0.192
5/17/24 - 1500 83.8 84.1 46 60.9 67.8 WNW | 289 5.4 10.5 WNW | 299 975 0.00 0.00 49.7 84.6 0.166
5/17/24 - 1400 82.2 82.2 45 58.6 66.1 NNE | 19 3.6 10.8 N | 4 1,022 0.00 0.00 49.7 83.7 0.137
5/17/24 - 1300 79.7 80.7 52 60.6 67.1 N | 11 3.1 9.5 NE | 54 1,015 0.00 0.00 49.7 81.9 0.107
5/17/24 - 1200 76.4 - 60 61.6 67.2 N | 5 3.3 9.1 NNE | 13 951 0.00 0.00 49.7 79.1 0.078
5/17/24 - 1100 72.7 - 68 61.4 66.4 NNE | 12 3.2 6.8 N | 4 833 0.00 0.00 49.7 74.6 0.053
5/17/24 - 1000 68.9 - 73 59.8 64.2 N | 349 1.6 5.8 NE | 37 671 0.00 0.00 49.7 71.3 0.031
5/17/24 - 0900 64.8 - 80 58.6 62.3 N | 353 0.7 4.1 WNW | 295 472 0.00 0.00 49.7 66.8 0.015
5/17/24 - 0800 58.2 - 94 56.4 58.5 SSW | 193 1.2 3.8 S | 183 268 0.00 0.00 49.7 61.9 0.005
5/17/24 - 0700 50.7 - 100 50.8 51.6 S | 187 1.6 3.4 S | 174 55 0.00 0.00 49.7 54.1 0.000
Max 83.8 84.1 100 62.3 68.6 - 9.4 18.5 - 1,025 0.00 0.00 56.1 84.8 0.241
Avg 66.0 82.4 72 55.5 59.9 - 3.3 7.6 - 360 0.00 - - - -
Min 43.7 80.7 44 43.2 43.8 - 0.1 2.4 - 0 0.00 0.00 43.0 54.1 0.000
Total - - - - - - - - - - 0.00 - - - -

Last 30 Days

Bell Hill-West

Daily Data | America/Los_Angeles
as of 5/19/24 7:08 AM PDT
Date Daily Max Temp (°F) Time of Max Temp Daily Min Temp (°F) Time of Min Temp Daily Rain (In) Month Precip (In) Season Precip (In) Wind Spd (mph) Daily Max Wind (mph) Time of Max Wind Max Wind Dir (°) Daily ETo (in) 7 Day ETo (in) Daily Solar Rad (Cal/cm2) Dew Pt (°F) Max RH (%) Min RH (%) Hrs 70-85F (hrs) Hrs > 95F (hrs) Powdery Mildew Stress (pts) GDDs (DL) GDDs (Mx/Mn) Seas GDDs (DL) Seas GDDs (Smpl) Hrs <= 32F (hrs) Hrs <= 28F (hrs) Chilling <=45F (hrs) Chill Hrs 32-45F (hrs) Utah Chilling (Units) Degree Hrs (hrs) Max 1 Min Rain (In) Max 1 Min Rain Time Max 15 Min Rain (In) Max 15 Min Precip Time Max 60 Min Rain (In) Max 60 Min Rain Time MinBV Day (V)
5/18/24 81.5 1225 51.6 0554 0.00 1.04 32.03 3.6 18.5 1606 SW | 232 0.240 1.76 758 55.0 100 40 10.56 0.00 100 16.5 16.5 418 341 0.0 0.0 0.0 0.0 0.0 128.8 - - - - - - 12.6
5/17/24 84.8 1502 49.7 0618 0.00 1.04 32.03 3.0 13.5 1521 WSW | 252 0.241 1.78 753 58.0 100 39 11.35 0.00 100 17.5 17.2 401 324 0.0 0.0 0.0 0.0 0.0 162.0 - - - - - - 12.6
5/16/24 81.4 1133 50.5 0605 0.00 1.04 32.03 4.0 16.2 1516 SW | 221 0.244 1.79 763 56.3 100 41 10.84 0.00 90 16.8 16.0 384 307 0.0 0.0 0.0 0.0 0.0 140.7 - - - - - - 12.6
5/15/24 90.1 1336 49.8 0553 0.00 1.04 32.03 3.6 18.2 1755 W | 262 0.268 1.80 762 53.1 100 27 3.97 0.00 70 20.4 19.9 367 291 0.0 0.0 0.0 0.0 0.0 222.7 - - - - - - 12.6
5/14/24 86.8 1516 47.4 0612 0.00 1.04 32.03 3.3 12.5 1504 SW | 231 0.250 1.77 755 54.9 100 29 3.78 0.00 80 18.2 17.1 347 271 0.0 0.0 0.0 0.0 0.0 187.0 - - - - - - 12.6
5/13/24 84.1 1555 43.8 0619 0.00 1.04 32.03 3.3 12.8 1815 SW | 217 0.254 1.72 776 49.6 98 26 10.87 0.00 90 16.2 13.9 329 254 0.0 0.0 1.5 1.5 0.0 155.8 - - - - - - 12.6
5/12/24 84.3 1436 46.6 0610 0.00 1.04 32.03 3.8 14.8 1605 SW | 230 0.263 1.65 772 48.0 98 26 10.77 0.00 70 16.0 15.4 312 240 0.0 0.0 0.0 0.0 1.0 163.0 - - - - - - 12.6
5/11/24 87.6 1414 45.8 0627 0.00 1.04 32.03 3.2 16.8 1648 S | 176 0.260 1.54 767 47.2 100 17 3.80 0.00 50 17.6 16.7 296 225 0.0 0.0 0.0 0.0 0.5 189.9 - - - - - - 12.6
5/10/24 84.4 1630 44.0 0608 0.00 1.04 32.03 3.3 15.5 1324 NE | 41 0.250 1.35 768 45.3 100 20 11.10 0.00 60 16.2 14.2 279 208 0.0 0.0 2.2 2.2 1.0 164.6 - - - - - - 12.6
5/9/24 77.8 1743 47.8 0523 0.00 1.04 32.03 4.7 18.8 1450 NNE | 31 0.255 1.31 773 40.7 90 24 8.60 0.00 40 15.1 12.8 263 194 0.0 0.0 0.0 0.0 1.5 94.5 - - - - - - 12.6
5/8/24 75.6 1526 37.1 0617 0.00 1.04 32.03 3.7 23.2 2025 NNE | 31 0.242 1.26 774 37.6 100 19 7.60 0.00 20 12.3 6.4 248 181 0.0 0.0 6.6 6.6 -0.5 72.0 - - - - - - 12.6
5/7/24 70.0 1752 35.5 0553 0.00 1.04 32.03 2.8 13.2 1318 WNW | 286 0.200 1.23 756 42.0 100 27 0.00 0.00 0 6.4 2.8 235 175 0.0 0.0 6.9 6.9 3.0 14.1 - - - - - - 12.6
5/6/24 64.7 1528 34.7 0602 0.00 1.04 32.03 3.8 16.8 1448 SSW | 200 0.178 1.23 713 42.4 100 51 0.00 0.00 0 4.5 0.0 229 172 0.0 0.0 8.0 8.0 4.0 0.0 - - - - - - 12.6
5/5/24 58.6 1624 34.5 0637 0.00 1.04 32.03 4.1 17.5 1536 SW | 227 0.161 1.25 715 39.1 100 46 0.00 0.00 0 1.9 0.0 224 172 0.0 0.0 10.6 10.6 5.5 0.0 - - - - - - 12.6
5/4/24 53.3 0118 40.1 0010 1.04 1.04 32.03 5.8 24.9 1440 W | 281 0.066 1.30 371 44.9 100 74 0.00 0.00 0 0.5 0.0 223 172 0.0 0.0 11.8 11.8 20.0 0.0 0.01 1819 0.09 0705 0.18 0739 12.6
5/3/24 74.1 1542 39.5 0605 0.00 0.00 30.99 4.1 17.8 1634 WSW | 241 0.213 1.41 714 46.3 100 29 5.04 0.00 0 9.3 6.8 222 172 0.0 0.0 4.8 4.8 1.5 42.5 - - - - - - 12.6
5/2/24 71.1 1421 40.7 0540 0.00 0.00 30.99 5.1 17.8 1727 SW | 215 0.205 1.35 727 48.5 98 48 0.89 0.00 0 9.8 5.9 213 165 0.0 0.0 5.9 5.9 0.5 28.8 - - - - - - 12.5
5/1/24 73.3 1608 34.5 0623 0.00 0.00 30.99 3.5 18.8 1620 W | 263 0.209 1.28 739 39.8 100 29 3.42 0.00 10 7.9 3.9 203 159 0.0 0.0 7.5 7.5 2.5 31.5 - - - - - - 12.6
4/30/24 69.8 1541 34.8 0616 0.00 0.64 30.99 3.5 16.5 1739 NW | 304 0.198 1.19 738 40.5 100 30 0.00 0.00 20 5.7 2.3 195 155 0.0 0.0 9.0 9.0 4.0 11.2 - - - - - - 12.6
4/29/24 69.0 1502 37.9 0645 0.00 0.64 30.99 4.3 19.5 1502 NNW | 337 0.200 1.14 725 41.4 100 32 0.00 0.00 30 6.1 3.4 189 153 0.0 0.0 6.1 6.1 4.0 6.8 - - - - - - 12.6
4/28/24 71.0 1456 38.9 0603 0.00 0.64 30.99 5.0 17.2 1457 WSW | 257 0.212 1.16 728 43.5 100 29 0.94 0.00 40 7.9 4.9 183 150 0.0 0.0 5.8 5.8 2.5 22.7 - - - - - - 12.6
4/27/24 67.8 1344 34.8 0615 0.00 0.64 30.99 3.9 18.2 1349 WSW | 241 0.173 1.16 645 43.7 100 41 0.00 0.00 50 5.9 1.3 175 145 0.0 0.0 6.8 6.8 3.0 5.1 - - - - - - 12.6
4/26/24 61.7 1228 41.3 0050 0.00 0.64 30.99 5.5 22.9 1629 SW | 236 0.152 1.21 641 46.5 100 57 0.00 0.00 60 3.9 1.5 170 143 0.0 0.0 1.1 1.1 5.0 0.0 - - - - - - 12.6
4/25/24 63.9 1453 44.5 0543 0.00 0.64 30.99 4.4 18.2 1505 SW | 226 0.133 1.27 520 46.5 100 54 0.00 0.00 70 4.2 4.2 166 142 0.0 0.0 1.4 1.4 3.5 0.0 - - - - - - 12.6
4/24/24 64.9 1401 49.4 0458 0.00 0.64 30.99 4.0 13.8 1526 S | 182 0.120 1.32 439 49.1 92 58 0.00 0.00 80 5.8 7.2 161 138 0.0 0.0 0.0 0.0 1.5 0.0 - - - - - - 12.6
4/23/24 63.6 1348 46.1 0601 0.00 0.64 30.99 5.8 18.8 1604 S | 179 0.152 1.38 652 48.7 99 64 0.00 0.00 90 4.6 4.8 156 130 0.0 0.0 0.0 0.0 2.5 0.0 - - - - - - 12.6
4/22/24 82.1 1602 44.2 0626 0.00 0.64 30.99 4.0 17.5 1814 SSW | 203 0.222 1.41 691 50.8 100 31 8.07 0.00 100 13.2 13.2 151 126 0.0 0.0 1.0 1.0 0.5 103.0 - - - - - - 12.6
4/21/24 81.9 1823 41.7 0620 0.00 0.64 30.99 3.0 10.8 1449 NE | 42 0.209 1.34 703 48.2 100 26 8.19 0.00 100 12.5 11.8 138 112 0.0 0.0 4.1 4.1 1.0 104.5 - - - - - - 12.5
4/20/24 77.1 1514 43.8 0654 0.00 0.64 30.99 4.0 16.8 1214 SW | 230 0.224 1.19 687 42.4 100 19 8.48 0.00 100 11.9 10.5 125 101 0.0 0.0 1.5 1.5 1.0 85.2 - - - - - - 12.6
4/19/24 79.7 1456 43.2 0608 0.00 0.64 30.99 4.0 17.5 1529 WSW | 246 0.212 0.99 675 49.1 100 29 8.37 0.00 100 12.1 11.5 113 90 0.0 0.0 2.8 2.8 1.0 92.3 - - - - - - 12.6
Max 90.1 - 51.6 - 1.04 1.04 32.03 5.8 24.9 - - 0.268 1.80 776 58.0 100 74 11.35 0.00 - 20.4 19.9 - - 0.0 0.0 11.8 11.8 20.0 222.7 - - - - - - 12.6
Avg - - - - - - - 4.0 - - - - - - 46.6 - - 4.55 0.00 - 10.6 8.7 - - 0.0 0.0 3.5 3.5 2.3 - - - - - - - -
Min 53.3 - 34.5 - 0.00 0.00 30.99 2.8 10.8 - - 0.066 0.99 371 37.6 90 17 0.00 0.00 - 0.5 0.0 - - 0.0 0.0 0.0 0.0 -0.5 0.0 - - - - - - 12.5
Total - - - - - - - - - - - - - - - - - 136.65 0.00 - 316.6 262.1 - - 0.0 0.0 105.4 105.4 70.0 - - - - - - - -

Bell Hill-West Climate Summary

Current Yeaer

Current Year | Showing 1/1/24 - 5/18/24
as of 5/19/24 7:08 AM PDT
Temperature (°F) Max Wind Gust (mph) Precip (in) Days
Month Days Avg High Avg Low Max Min Avg Max Total Daily Min Temp < 28 Daily Min Temp < 32 Daily Max Temp > 90 Daily Max Temp > 100 Daily Rain > 0.01 Daily Rain > 0.1
Jan 2024 31 55.8 37.4 71.7 24.8 14.7 26.9 7.84 3 5 0 0 14 11
Feb 2024 29 55.8 35.1 67.5 27 17 44 9.54 2 10 0 0 12 10
Mar 2024 31 58.7 36.2 75 30.4 17.3 28.2 5.35 0 4 0 0 17 11
Apr 2024 30 68.5 39.5 82.1 29.8 16.5 24.2 0.64 0 1 0 0 3 2
May 2024 18 76.9 43 90.1 34.5 17.1 24.9 1.04 0 0 1 0 1 1
Total 139 - - - - - - 24.41 5 20 1 0 47 35
Average 27.8 61.9 37.8 61.9 37.8 16.5 - 4.88 1 4 0.2 0 9.4 7
Maximum 31 76.9 43 90.1 - - 44 9.54 3 10 1 0 17 11
Minimum 18 55.8 35.1 - 24.8 - - 0.64 0 0 0 0 1 1

Bell Hill-West Climate Summary

Last Year

Last Year | Showing 1/1/23 - 12/31/23
as of 5/19/24 7:08 AM PDT
Temperature (°F) Max Wind Gust (mph) Precip (in) Days
Month Days Avg High Avg Low Max Min Avg Max Total Daily Min Temp < 28 Daily Min Temp < 32 Daily Max Temp > 90 Daily Max Temp > 100 Daily Rain > 0.01 Daily Rain > 0.1
Jan 2023 31 54.5 33.9 68.9 20.9 17.9 44.3 14.29 6 15 0 0 15 13
Feb 2023 28 55.2 28.9 73.4 20.6 16.1 32.6 4.94 10 23 0 0 10 7
Mar 2023 31 52.7 33.8 62.6 24.9 16.9 34.3 7.62 5 15 0 0 17 14
Apr 2023 30 67.9 37.3 89.9 25.4 17.3 24.2 0.53 1 5 0 0 3 2
May 2023 31 74.9 46.1 90.5 38.3 16 19.5 1.2 0 0 1 0 4 3
Jun 2023 30 82.2 49.6 100 38.2 17.5 28.9 0.03 0 0 4 0 1 0
Jul 2023 31 93.4 54.8 103.3 47.2 15.3 18.5 0 0 0 20 5 0 0
Aug 2023 31 90.6 55.8 103.5 47.5 15.6 21.2 0 0 0 16 2 0 0
Sep 2023 30 81.1 49.1 96.6 42.4 15.4 20.2 0.07 0 0 3 0 2 0
Oct 2023 31 75.2 41.6 90.8 29 12.5 20.2 0.59 0 6 3 0 2 1
Nov 2023 30 64.2 36.3 78.9 22.6 12.3 22.9 2.02 5 9 0 0 5 4
Dec 2023 31 57 36.3 67.8 26.4 12.3 25.9 4.94 4 13 0 0 12 8
Total 365 - - - - - - 36.23 31 86 47 7 71 52
Average 30.4 70.8 42.1 70.8 42.1 15.4 - 3.02 2.6 7.2 3.9 0.6 5.9 4.3
Maximum 31 93.4 55.8 103.5 - - 44.3 14.29 10 23 20 5 17 14
Minimum 28 52.7 28.9 - 20.6 - - 0 0 0 0 0 0 0
Calm: 1.0%
Calm: 0.0%